sensor_id;sensor_type;location;lat;lon;timestamp;pressure;altitude;pressure_sealevel;temperature;humidity
28588;BME280;15787;49.662;10.162;2022-09-06T00:02:19;99189.69;;;17.84;85.30
28588;BME280;15787;49.662;10.162;2022-09-06T00:04:47;99192.63;;;17.99;84.72
28588;BME280;15787;49.662;10.162;2022-09-06T00:07:15;99197.38;;;17.84;84.58
28588;BME280;15787;49.662;10.162;2022-09-06T00:09:43;99199.22;;;17.96;84.97
28588;BME280;15787;49.662;10.162;2022-09-06T00:12:12;99192.97;;;17.92;84.96
28588;BME280;15787;49.662;10.162;2022-09-06T00:14:40;99189.25;;;17.77;85.37
28588;BME280;15787;49.662;10.162;2022-09-06T00:17:08;99194.47;;;17.60;85.97
28588;BME280;15787;49.662;10.162;2022-09-06T00:19:36;99183.13;;;17.78;85.52
28588;BME280;15787;49.662;10.162;2022-09-06T00:22:04;99190.94;;;17.83;85.46
28588;BME280;15787;49.662;10.162;2022-09-06T00:24:33;99182.69;;;17.71;85.08
28588;BME280;15787;49.662;10.162;2022-09-06T00:27:02;99188.63;;;17.73;85.39
28588;BME280;15787;49.662;10.162;2022-09-06T00:29:33;99190.19;;;17.74;85.31
28588;BME280;15787;49.662;10.162;2022-09-06T00:32:01;99182.09;;;17.66;85.82
28588;BME280;15787;49.662;10.162;2022-09-06T00:34:29;99183.97;;;17.60;85.69
28588;BME280;15787;49.662;10.162;2022-09-06T00:36:57;99190.88;;;17.50;85.90
28588;BME280;15787;49.662;10.162;2022-09-06T00:39:25;99181.00;;;17.46;86.12
28588;BME280;15787;49.662;10.162;2022-09-06T00:41:53;99190.56;;;17.48;86.09
28588;BME280;15787;49.662;10.162;2022-09-06T00:44:22;99197.94;;;17.64;86.50
28588;BME280;15787;49.662;10.162;2022-09-06T00:46:52;99194.50;;;17.42;86.72
28588;BME280;15787;49.662;10.162;2022-09-06T00:49:24;99188.41;;;17.16;87.70
28588;BME280;15787;49.662;10.162;2022-09-06T00:51:56;99197.50;;;17.38;87.27
28588;BME280;15787;49.662;10.162;2022-09-06T00:54:26;99199.38;;;17.41;87.16
28588;BME280;15787;49.662;10.162;2022-09-06T00:56:54;99195.78;;;17.41;87.10
28588;BME280;15787;49.662;10.162;2022-09-06T00:59:24;99199.84;;;17.49;87.29
28588;BME280;15787;49.662;10.162;2022-09-06T01:01:54;99189.66;;;17.24;87.42
28588;BME280;15787;49.662;10.162;2022-09-06T01:04:22;99192.44;;;17.51;87.49
28588;BME280;15787;49.662;10.162;2022-09-06T01:06:56;99195.94;;;17.19;87.95
28588;BME280;15787;49.662;10.162;2022-09-06T01:09:38;99194.25;;;17.13;88.12
28588;BME280;15787;49.662;10.162;2022-09-06T01:12:21;99192.19;;;17.04;88.62
28588;BME280;15787;49.662;10.162;2022-09-06T01:15:06;99190.03;;;17.08;88.70
28588;BME280;15787;49.662;10.162;2022-09-06T01:17:49;99191.72;;;17.15;88.22
28588;BME280;15787;49.662;10.162;2022-09-06T01:20:48;99194.56;;;17.24;88.35
28588;BME280;15787;49.662;10.162;2022-09-06T01:23:48;99188.59;;;17.13;88.34
28588;BME280;15787;49.662;10.162;2022-09-06T01:29:25;99196.09;;;17.25;88.79
28588;BME280;15787;49.662;10.162;2022-09-06T01:32:00;99195.94;;;17.19;89.53
28588;BME280;15787;49.662;10.162;2022-09-06T01:34:35;99189.22;;;17.17;89.48
28588;BME280;15787;49.662;10.162;2022-09-06T01:37:08;99185.63;;;17.07;89.55
28588;BME280;15787;49.662;10.162;2022-09-06T01:39:38;99187.38;;;16.77;90.28
28588;BME280;15787;49.662;10.162;2022-09-06T01:42:09;99190.34;;;16.83;90.09
28588;BME280;15787;49.662;10.162;2022-09-06T01:44:42;99197.53;;;16.66;90.90
28588;BME280;15787;49.662;10.162;2022-09-06T01:47:19;99185.94;;;16.91;90.54
28588;BME280;15787;49.662;10.162;2022-09-06T01:50:15;99181.56;;;16.81;90.52
28588;BME280;15787;49.662;10.162;2022-09-06T01:52:56;99179.69;;;16.78;90.81
28588;BME280;15787;49.662;10.162;2022-09-06T01:55:29;99177.81;;;16.84;90.38
28588;BME280;15787;49.662;10.162;2022-09-06T01:58:19;99183.78;;;16.68;91.40
28588;BME280;15787;49.662;10.162;2022-09-06T02:00:55;99180.25;;;16.45;91.65
28588;BME280;15787;49.662;10.162;2022-09-06T02:03:29;99178.22;;;16.37;92.72
28588;BME280;15787;49.662;10.162;2022-09-06T02:06:04;99183.75;;;16.59;91.77
28588;BME280;15787;49.662;10.162;2022-09-06T02:08:36;99184.84;;;16.61;91.18
28588;BME280;15787;49.662;10.162;2022-09-06T02:11:07;99181.09;;;16.73;90.90
28588;BME280;15787;49.662;10.162;2022-09-06T02:13:37;99179.16;;;16.43;91.74
28588;BME280;15787;49.662;10.162;2022-09-06T02:16:07;99176.06;;;16.86;90.54
28588;BME280;15787;49.662;10.162;2022-09-06T02:18:39;99174.50;;;16.58;90.45
28588;BME280;15787;49.662;10.162;2022-09-06T02:21:10;99179.84;;;16.74;90.86
28588;BME280;15787;49.662;10.162;2022-09-06T02:23:42;99186.59;;;16.68;90.81
28588;BME280;15787;49.662;10.162;2022-09-06T02:26:13;99181.56;;;16.72;91.14
28588;BME280;15787;49.662;10.162;2022-09-06T02:28:44;99185.00;;;16.76;91.04
28588;BME280;15787;49.662;10.162;2022-09-06T02:31:17;99181.09;;;16.91;90.77
28588;BME280;15787;49.662;10.162;2022-09-06T02:33:47;99187.47;;;16.47;91.39
28588;BME280;15787;49.662;10.162;2022-09-06T02:36:16;99180.00;;;16.71;91.32
28588;BME280;15787;49.662;10.162;2022-09-06T02:38:45;99178.72;;;16.81;91.30
28588;BME280;15787;49.662;10.162;2022-09-06T02:41:14;99184.69;;;16.74;91.54
28588;BME280;15787;49.662;10.162;2022-09-06T02:43:44;99188.28;;;16.83;91.73
28588;BME280;15787;49.662;10.162;2022-09-06T02:46:14;99178.44;;;16.88;91.86
28588;BME280;15787;49.662;10.162;2022-09-06T02:48:42;99184.38;;;16.72;92.07
28588;BME280;15787;49.662;10.162;2022-09-06T02:51:10;99176.09;;;16.77;92.69
28588;BME280;15787;49.662;10.162;2022-09-06T02:53:38;99176.72;;;16.72;92.78
28588;BME280;15787;49.662;10.162;2022-09-06T02:56:06;99176.41;;;16.97;92.11
28588;BME280;15787;49.662;10.162;2022-09-06T02:58:34;99173.09;;;16.90;92.46
28588;BME280;15787;49.662;10.162;2022-09-06T03:01:02;99163.06;;;16.89;92.93
28588;BME280;15787;49.662;10.162;2022-09-06T03:03:32;99167.00;;;17.00;92.55
28588;BME280;15787;49.662;10.162;2022-09-06T03:05:59;99172.63;;;16.73;93.18
28588;BME280;15787;49.662;10.162;2022-09-06T03:08:27;99177.34;;;16.76;92.88
28588;BME280;15787;49.662;10.162;2022-09-06T03:10:59;99172.13;;;17.11;92.39
28588;BME280;15787;49.662;10.162;2022-09-06T03:13:27;99173.41;;;16.74;92.26
28588;BME280;15787;49.662;10.162;2022-09-06T03:15:57;99182.19;;;17.03;91.91
28588;BME280;15787;49.662;10.162;2022-09-06T03:18:27;99178.44;;;16.70;93.51
28588;BME280;15787;49.662;10.162;2022-09-06T03:20:57;99175.44;;;17.00;93.01
28588;BME280;15787;49.662;10.162;2022-09-06T03:23:26;99174.47;;;17.03;92.10
28588;BME280;15787;49.662;10.162;2022-09-06T03:25:55;99168.53;;;17.01;92.56
28588;BME280;15787;49.662;10.162;2022-09-06T03:28:23;99167.78;;;16.83;92.29
28588;BME280;15787;49.662;10.162;2022-09-06T03:30:51;99168.22;;;16.99;92.00
28588;BME280;15787;49.662;10.162;2022-09-06T03:33:19;99167.91;;;17.06;91.64
28588;BME280;15787;49.662;10.162;2022-09-06T03:35:49;99174.66;;;17.18;91.30
28588;BME280;15787;49.662;10.162;2022-09-06T03:38:18;99171.84;;;16.91;91.66
28588;BME280;15787;49.662;10.162;2022-09-06T03:40:47;99168.53;;;17.01;91.76
28588;BME280;15787;49.662;10.162;2022-09-06T03:43:16;99169.03;;;16.73;91.89
28588;BME280;15787;49.662;10.162;2022-09-06T03:45:45;99169.34;;;16.93;91.32
28588;BME280;15787;49.662;10.162;2022-09-06T03:48:14;99182.66;;;17.01;92.13
28588;BME280;15787;49.662;10.162;2022-09-06T03:50:43;99250.66;;;16.94;93.04
28588;BME280;15787;49.662;10.162;2022-09-06T03:53:12;99273.44;;;16.42;96.77
28588;BME280;15787;49.662;10.162;2022-09-06T03:55:44;99197.72;;;16.80;95.74
28588;BME280;15787;49.662;10.162;2022-09-06T03:58:13;99222.59;;;17.27;94.29
28588;BME280;15787;49.662;10.162;2022-09-06T04:00:41;99219.59;;;17.40;91.99
28588;BME280;15787;49.662;10.162;2022-09-06T04:03:09;99228.81;;;17.67;91.46
28588;BME280;15787;49.662;10.162;2022-09-06T04:05:37;99209.63;;;17.81;89.42
28588;BME280;15787;49.662;10.162;2022-09-06T04:08:05;99204.81;;;17.63;90.31
28588;BME280;15787;49.662;10.162;2022-09-06T04:10:33;99205.06;;;17.92;90.06
28588;BME280;15787;49.662;10.162;2022-09-06T04:13:02;99200.28;;;18.07;88.61
28588;BME280;15787;49.662;10.162;2022-09-06T04:15:30;99212.59;;;17.86;89.05
28588;BME280;15787;49.662;10.162;2022-09-06T04:17:58;99203.19;;;18.13;88.99
28588;BME280;15787;49.662;10.162;2022-09-06T04:20:26;99205.13;;;18.07;87.97
28588;BME280;15787;49.662;10.162;2022-09-06T04:22:53;99200.50;;;17.86;89.05
28588;BME280;15787;49.662;10.162;2022-09-06T04:25:21;99191.00;;;18.07;87.99
28588;BME280;15787;49.662;10.162;2022-09-06T04:27:49;99184.34;;;17.86;88.14
28588;BME280;15787;49.662;10.162;2022-09-06T04:30:18;99181.31;;;17.57;90.22
28588;BME280;15787;49.662;10.162;2022-09-06T04:32:46;99167.47;;;17.68;90.30
28588;BME280;15787;49.662;10.162;2022-09-06T04:35:14;99177.44;;;17.87;88.82
28588;BME280;15787;49.662;10.162;2022-09-06T04:37:42;99182.03;;;18.08;88.81
28588;BME280;15787;49.662;10.162;2022-09-06T04:40:10;99166.38;;;18.07;87.83
28588;BME280;15787;49.662;10.162;2022-09-06T04:42:38;99160.50;;;18.11;87.77
28588;BME280;15787;49.662;10.162;2022-09-06T04:45:07;99176.38;;;18.08;87.73
28588;BME280;15787;49.662;10.162;2022-09-06T04:47:37;99186.00;;;17.69;89.95
28588;BME280;15787;49.662;10.162;2022-09-06T04:50:05;99187.63;;;17.94;88.95
28588;BME280;15787;49.662;10.162;2022-09-06T04:52:33;99201.13;;;17.90;89.20
28588;BME280;15787;49.662;10.162;2022-09-06T04:55:01;99181.59;;;18.01;88.86
28588;BME280;15787;49.662;10.162;2022-09-06T04:57:29;99167.97;;;17.99;88.89
28588;BME280;15787;49.662;10.162;2022-09-06T04:59:57;99177.81;;;17.71;90.46
28588;BME280;15787;49.662;10.162;2022-09-06T05:02:25;99180.72;;;17.44;91.13
28588;BME280;15787;49.662;10.162;2022-09-06T05:04:54;99183.25;;;17.84;91.01
28588;BME280;15787;49.662;10.162;2022-09-06T05:07:22;99181.81;;;17.46;90.94
28588;BME280;15787;49.662;10.162;2022-09-06T05:09:50;99177.81;;;17.71;91.25
28588;BME280;15787;49.662;10.162;2022-09-06T05:12:18;99175.06;;;17.35;92.83
28588;BME280;15787;49.662;10.162;2022-09-06T05:14:46;99180.34;;;17.60;92.50
28588;BME280;15787;49.662;10.162;2022-09-06T05:17:13;99190.38;;;17.52;92.14
28588;BME280;15787;49.662;10.162;2022-09-06T05:19:41;99185.00;;;17.72;92.08
28588;BME280;15787;49.662;10.162;2022-09-06T05:22:11;99178.09;;;17.82;91.08
28588;BME280;15787;49.662;10.162;2022-09-06T05:24:38;99187.44;;;17.55;91.49
28588;BME280;15787;49.662;10.162;2022-09-06T05:27:06;99198.63;;;17.83;91.03
28588;BME280;15787;49.662;10.162;2022-09-06T05:29:34;99195.72;;;18.01;89.76
28588;BME280;15787;49.662;10.162;2022-09-06T05:32:02;99186.50;;;18.24;89.49
28588;BME280;15787;49.662;10.162;2022-09-06T05:34:30;99190.47;;;18.41;88.93
28588;BME280;15787;49.662;10.162;2022-09-06T05:36:58;99202.44;;;18.12;89.35
28588;BME280;15787;49.662;10.162;2022-09-06T05:39:28;99195.53;;;18.37;89.42
28588;BME280;15787;49.662;10.162;2022-09-06T05:41:56;99192.81;;;18.19;90.21
28588;BME280;15787;49.662;10.162;2022-09-06T05:44:24;99183.31;;;18.31;89.56
28588;BME280;15787;49.662;10.162;2022-09-06T05:46:52;99189.25;;;18.66;88.58
28588;BME280;15787;49.662;10.162;2022-09-06T05:49:19;99189.97;;;18.75;87.21
28588;BME280;15787;49.662;10.162;2022-09-06T05:51:49;99174.81;;;18.64;86.96
28588;BME280;15787;49.662;10.162;2022-09-06T05:54:18;99180.53;;;18.78;86.72
28588;BME280;15787;49.662;10.162;2022-09-06T05:56:47;99167.69;;;19.07;85.64
28588;BME280;15787;49.662;10.162;2022-09-06T05:59:15;99172.06;;;18.93;86.11
28588;BME280;15787;49.662;10.162;2022-09-06T06:01:46;99170.66;;;19.27;85.65
28588;BME280;15787;49.662;10.162;2022-09-06T06:04:15;99168.81;;;18.85;86.22
28588;BME280;15787;49.662;10.162;2022-09-06T06:06:45;99157.81;;;18.87;87.40
28588;BME280;15787;49.662;10.162;2022-09-06T06:09:15;99154.78;;;18.91;87.56
28588;BME280;15787;49.662;10.162;2022-09-06T06:11:43;99172.88;;;19.23;86.99
28588;BME280;15787;49.662;10.162;2022-09-06T06:14:12;99171.59;;;19.09;86.41
28588;BME280;15787;49.662;10.162;2022-09-06T06:16:40;99175.81;;;19.14;87.06
28588;BME280;15787;49.662;10.162;2022-09-06T06:19:08;99177.84;;;19.13;87.38
28588;BME280;15787;49.662;10.162;2022-09-06T06:21:36;99177.44;;;19.06;88.13
28588;BME280;15787;49.662;10.162;2022-09-06T06:24:05;99180.91;;;19.24;87.84
28588;BME280;15787;49.662;10.162;2022-09-06T06:26:34;99185.19;;;19.34;87.43
28588;BME280;15787;49.662;10.162;2022-09-06T06:29:03;99189.16;;;19.13;88.44
28588;BME280;15787;49.662;10.162;2022-09-06T06:31:36;99185.47;;;19.22;88.66
28588;BME280;15787;49.662;10.162;2022-09-06T06:34:04;99184.09;;;19.17;88.73
28588;BME280;15787;49.662;10.162;2022-09-06T06:36:34;99194.84;;;19.13;89.34
28588;BME280;15787;49.662;10.162;2022-09-06T06:39:03;99198.34;;;19.23;88.85
28588;BME280;15787;49.662;10.162;2022-09-06T06:41:32;99191.84;;;19.46;88.57
28588;BME280;15787;49.662;10.162;2022-09-06T06:44:01;99187.75;;;19.62;87.71
28588;BME280;15787;49.662;10.162;2022-09-06T06:46:31;99192.84;;;19.58;87.35
28588;BME280;15787;49.662;10.162;2022-09-06T06:49:00;99186.44;;;19.92;86.30
28588;BME280;15787;49.662;10.162;2022-09-06T06:51:30;99188.16;;;20.18;84.65
28588;BME280;15787;49.662;10.162;2022-09-06T06:53:58;99194.38;;;20.37;83.36
28588;BME280;15787;49.662;10.162;2022-09-06T06:56:28;99193.19;;;20.64;82.83
28588;BME280;15787;49.662;10.162;2022-09-06T06:58:57;99198.44;;;20.71;82.07
28588;BME280;15787;49.662;10.162;2022-09-06T07:01:27;99202.78;;;20.66;81.99
28588;BME280;15787;49.662;10.162;2022-09-06T07:03:56;99198.78;;;20.78;81.58
28588;BME280;15787;49.662;10.162;2022-09-06T07:06:25;99196.81;;;20.64;82.10
28588;BME280;15787;49.662;10.162;2022-09-06T07:09:15;99201.13;;;20.60;81.64
28588;BME280;15787;49.662;10.162;2022-09-06T07:11:43;99207.66;;;20.66;81.06
28588;BME280;15787;49.662;10.162;2022-09-06T07:14:11;99199.94;;;20.87;80.71
28588;BME280;15787;49.662;10.162;2022-09-06T07:16:39;99215.75;;;21.13;79.39
28588;BME280;15787;49.662;10.162;2022-09-06T07:19:07;99211.31;;;21.32;79.25
28588;BME280;15787;49.662;10.162;2022-09-06T07:21:57;99207.91;;;21.54;78.08
28588;BME280;15787;49.662;10.162;2022-09-06T07:24:30;99215.63;;;21.79;77.47
28588;BME280;15787;49.662;10.162;2022-09-06T07:26:58;99216.88;;;21.98;76.99
28588;BME280;15787;49.662;10.162;2022-09-06T07:29:46;99223.91;;;22.40;75.22
28588;BME280;15787;49.662;10.162;2022-09-06T07:32:14;99222.41;;;22.55;74.04
28588;BME280;15787;49.662;10.162;2022-09-06T07:34:42;99212.09;;;22.16;74.81
28588;BME280;15787;49.662;10.162;2022-09-06T07:37:11;99211.81;;;22.14;75.50
28588;BME280;15787;49.662;10.162;2022-09-06T07:39:39;99210.63;;;21.94;75.69
28588;BME280;15787;49.662;10.162;2022-09-06T07:42:07;99204.69;;;22.29;76.19
28588;BME280;15787;49.662;10.162;2022-09-06T07:44:35;99211.91;;;22.67;74.38
28588;BME280;15787;49.662;10.162;2022-09-06T07:47:03;99208.63;;;22.80;73.63
28588;BME280;15787;49.662;10.162;2022-09-06T07:49:52;99211.28;;;23.00;72.77
28588;BME280;15787;49.662;10.162;2022-09-06T07:52:41;99215.03;;;23.39;72.53
28588;BME280;15787;49.662;10.162;2022-09-06T07:55:28;99215.63;;;23.54;71.90
28588;BME280;15787;49.662;10.162;2022-09-06T07:57:56;99212.75;;;23.49;72.10
28588;BME280;15787;49.662;10.162;2022-09-06T08:00:24;99214.84;;;24.04;70.64
28588;BME280;15787;49.662;10.162;2022-09-06T08:02:52;99215.63;;;24.04;69.53
28588;BME280;15787;49.662;10.162;2022-09-06T08:05:20;99217.19;;;24.22;70.03
28588;BME280;15787;49.662;10.162;2022-09-06T08:08:09;99221.75;;;24.80;68.45
28588;BME280;15787;49.662;10.162;2022-09-06T08:10:57;99225.63;;;24.77;66.89
28588;BME280;15787;49.662;10.162;2022-09-06T08:13:26;99224.69;;;25.27;65.29
28588;BME280;15787;49.662;10.162;2022-09-06T08:15:57;99229.78;;;24.87;66.13
28588;BME280;15787;49.662;10.162;2022-09-06T08:18:25;99234.88;;;25.11;65.49
28588;BME280;15787;49.662;10.162;2022-09-06T08:20:53;99227.09;;;25.58;64.69
28588;BME280;15787;49.662;10.162;2022-09-06T08:23:22;99227.25;;;25.77;63.84
28588;BME280;15787;49.662;10.162;2022-09-06T08:25:56;99221.88;;;25.97;63.21
28588;BME280;15787;49.662;10.162;2022-09-06T08:28:25;99222.69;;;26.27;62.38
28588;BME280;15787;49.662;10.162;2022-09-06T08:30:54;99220.19;;;26.43;62.24
28588;BME280;15787;49.662;10.162;2022-09-06T08:33:22;99220.03;;;26.59;61.37
28588;BME280;15787;49.662;10.162;2022-09-06T08:35:54;99228.13;;;26.31;61.69
28588;BME280;15787;49.662;10.162;2022-09-06T08:38:24;99220.59;;;26.52;60.70
28588;BME280;15787;49.662;10.162;2022-09-06T08:40:53;99225.97;;;26.07;61.37
28588;BME280;15787;49.662;10.162;2022-09-06T08:43:21;99221.16;;;26.51;61.26
28588;BME280;15787;49.662;10.162;2022-09-06T08:45:54;99231.44;;;26.89;60.94
28588;BME280;15787;49.662;10.162;2022-09-06T08:48:23;99227.44;;;27.16;59.21
28588;BME280;15787;49.662;10.162;2022-09-06T08:51:06;99218.16;;;27.29;59.75
28588;BME280;15787;49.662;10.162;2022-09-06T08:53:43;99226.47;;;27.32;58.47
28588;BME280;15787;49.662;10.162;2022-09-06T08:56:14;99227.00;;;27.49;58.75
28588;BME280;15787;49.662;10.162;2022-09-06T08:58:56;99217.44;;;27.04;58.73
28588;BME280;15787;49.662;10.162;2022-09-06T09:01:31;99218.19;;;27.47;58.21
28588;BME280;15787;49.662;10.162;2022-09-06T09:04:03;99215.97;;;27.72;58.32
28588;BME280;15787;49.662;10.162;2022-09-06T09:06:33;99211.13;;;27.99;57.13
28588;BME280;15787;49.662;10.162;2022-09-06T09:09:05;99212.59;;;27.74;57.15
28588;BME280;15787;49.662;10.162;2022-09-06T09:11:33;99204.13;;;28.13;56.21
28588;BME280;15787;49.662;10.162;2022-09-06T09:14:04;99202.91;;;27.90;55.90
28588;BME280;15787;49.662;10.162;2022-09-06T09:16:32;99202.44;;;28.49;54.82
28588;BME280;15787;49.662;10.162;2022-09-06T09:19:03;99189.31;;;28.80;54.57
28588;BME280;15787;49.662;10.162;2022-09-06T09:21:33;99191.19;;;28.91;54.26
28588;BME280;15787;49.662;10.162;2022-09-06T09:24:06;99193.59;;;29.26;54.15
28588;BME280;15787;49.662;10.162;2022-09-06T09:26:43;99184.28;;;29.33;53.39
28588;BME280;15787;49.662;10.162;2022-09-06T09:29:14;99187.25;;;29.14;52.23
28588;BME280;15787;49.662;10.162;2022-09-06T09:31:46;99188.03;;;29.15;53.06
28588;BME280;15787;49.662;10.162;2022-09-06T09:34:28;99175.09;;;29.21;52.97
28588;BME280;15787;49.662;10.162;2022-09-06T09:37:12;99171.88;;;29.38;52.13
28588;BME280;15787;49.662;10.162;2022-09-06T09:40:06;99166.81;;;29.31;51.99
28588;BME280;15787;49.662;10.162;2022-09-06T09:42:39;99168.06;;;28.96;52.69
28588;BME280;15787;49.662;10.162;2022-09-06T09:45:23;99171.47;;;30.09;51.45
28588;BME280;15787;49.662;10.162;2022-09-06T09:47:52;99169.19;;;30.36;50.12
28588;BME280;15787;49.662;10.162;2022-09-06T09:50:24;99179.81;;;30.41;48.89
28588;BME280;15787;49.662;10.162;2022-09-06T09:52:53;99173.50;;;29.80;48.62
28588;BME280;15787;49.662;10.162;2022-09-06T09:55:24;99164.50;;;30.04;49.00
28588;BME280;15787;49.662;10.162;2022-09-06T09:57:53;99175.78;;;30.44;49.00
28588;BME280;15787;49.662;10.162;2022-09-06T10:00:33;99174.13;;;30.28;48.14
28588;BME280;15787;49.662;10.162;2022-09-06T10:03:10;99172.69;;;30.21;48.14
28588;BME280;15787;49.662;10.162;2022-09-06T10:05:39;99167.31;;;31.02;47.41
28588;BME280;15787;49.662;10.162;2022-09-06T10:08:10;99172.28;;;30.94;48.17
28588;BME280;15787;49.662;10.162;2022-09-06T10:10:41;99165.97;;;30.19;48.30
28588;BME280;15787;49.662;10.162;2022-09-06T10:13:18;99158.69;;;30.74;48.07
28588;BME280;15787;49.662;10.162;2022-09-06T10:15:47;99158.19;;;30.83;47.50
28588;BME280;15787;49.662;10.162;2022-09-06T10:18:19;99153.63;;;31.39;47.92
28588;BME280;15787;49.662;10.162;2022-09-06T10:20:58;99142.19;;;31.18;47.64
28588;BME280;15787;49.662;10.162;2022-09-06T10:23:35;99139.16;;;31.31;47.79
28588;BME280;15787;49.662;10.162;2022-09-06T10:26:33;99139.72;;;31.14;47.74
28588;BME280;15787;49.662;10.162;2022-09-06T10:29:07;99140.41;;;31.51;47.53
28588;BME280;15787;49.662;10.162;2022-09-06T10:31:46;99145.44;;;31.58;47.22
28588;BME280;15787;49.662;10.162;2022-09-06T10:34:42;99134.88;;;31.91;46.10
28588;BME280;15787;49.662;10.162;2022-09-06T10:37:19;99142.97;;;31.18;46.95
28588;BME280;15787;49.662;10.162;2022-09-06T10:39:55;99136.50;;;31.41;47.05
28588;BME280;15787;49.662;10.162;2022-09-06T10:42:32;99133.50;;;31.61;46.56
28588;BME280;15787;49.662;10.162;2022-09-06T10:45:15;99123.84;;;31.51;46.87
28588;BME280;15787;49.662;10.162;2022-09-06T10:47:54;99135.84;;;31.78;46.60
28588;BME280;15787;49.662;10.162;2022-09-06T10:50:30;99123.81;;;30.57;47.61
28588;BME280;15787;49.662;10.162;2022-09-06T10:53:06;99102.19;;;30.71;48.07
28588;BME280;15787;49.662;10.162;2022-09-06T10:55:39;99123.94;;;30.23;49.17
28588;BME280;15787;49.662;10.162;2022-09-06T10:58:12;99112.47;;;30.59;48.66
28588;BME280;15787;49.662;10.162;2022-09-06T11:00:46;99114.53;;;30.87;48.35
28588;BME280;15787;49.662;10.162;2022-09-06T11:03:21;99120.25;;;31.15;48.08
28588;BME280;15787;49.662;10.162;2022-09-06T11:06:12;99115.81;;;31.57;47.63
28588;BME280;15787;49.662;10.162;2022-09-06T11:08:47;99108.66;;;30.92;48.62
28588;BME280;15787;49.662;10.162;2022-09-06T11:11:27;99112.06;;;31.34;47.96
28588;BME280;15787;49.662;10.162;2022-09-06T11:14:06;99112.00;;;31.11;48.61
28588;BME280;15787;49.662;10.162;2022-09-06T11:16:42;99106.22;;;32.15;47.50
28588;BME280;15787;49.662;10.162;2022-09-06T11:19:16;99123.28;;;31.53;47.84
28588;BME280;15787;49.662;10.162;2022-09-06T11:22:27;99114.06;;;31.54;46.42
28588;BME280;15787;49.662;10.162;2022-09-06T11:25:26;99112.50;;;32.67;45.98
28588;BME280;15787;49.662;10.162;2022-09-06T11:27:58;99101.38;;;32.95;45.21
28588;BME280;15787;49.662;10.162;2022-09-06T11:30:30;99105.56;;;32.70;45.67
28588;BME280;15787;49.662;10.162;2022-09-06T11:33:09;99108.88;;;32.43;46.02
28588;BME280;15787;49.662;10.162;2022-09-06T11:35:41;99103.16;;;32.06;45.64
28588;BME280;15787;49.662;10.162;2022-09-06T11:38:21;99095.03;;;32.19;45.33
28588;BME280;15787;49.662;10.162;2022-09-06T11:40:56;99093.84;;;32.37;46.15
28588;BME280;15787;49.662;10.162;2022-09-06T11:43:43;99082.00;;;33.28;44.76
28588;BME280;15787;49.662;10.162;2022-09-06T11:49:32;99089.16;;;33.52;44.53
28588;BME280;15787;49.662;10.162;2022-09-06T11:52:00;99088.81;;;33.48;44.49
28588;BME280;15787;49.662;10.162;2022-09-06T11:54:39;99075.25;;;32.78;44.38
28588;BME280;15787;49.662;10.162;2022-09-06T11:57:13;99082.50;;;31.71;45.78
28588;BME280;15787;49.662;10.162;2022-09-06T11:59:50;99078.16;;;32.71;45.38
28588;BME280;15787;49.662;10.162;2022-09-06T12:02:35;99084.59;;;32.54;45.04
28588;BME280;15787;49.662;10.162;2022-09-06T12:05:16;99093.03;;;32.60;45.26
28588;BME280;15787;49.662;10.162;2022-09-06T12:08:23;99088.06;;;32.30;45.16
28588;BME280;15787;49.662;10.162;2022-09-06T12:11:20;99079.56;;;32.47;44.82
28588;BME280;15787;49.662;10.162;2022-09-06T12:14:00;99063.41;;;33.31;43.55
28588;BME280;15787;49.662;10.162;2022-09-06T12:19:46;99063.25;;;33.29;43.42
28588;BME280;15787;49.662;10.162;2022-09-06T12:25:54;99063.03;;;33.35;42.66
28588;BME280;15787;49.662;10.162;2022-09-06T12:28:34;99067.41;;;33.11;43.12
28588;BME280;15787;49.662;10.162;2022-09-06T12:31:27;99055.22;;;32.73;43.86
28588;BME280;15787;49.662;10.162;2022-09-06T12:33:57;99057.09;;;31.55;44.89
28588;BME280;15787;49.662;10.162;2022-09-06T12:36:29;99054.44;;;32.80;43.73
28588;BME280;15787;49.662;10.162;2022-09-06T12:38:59;99056.88;;;33.63;42.96
28588;BME280;15787;49.662;10.162;2022-09-06T12:41:31;99058.63;;;34.25;42.09
28588;BME280;15787;49.662;10.162;2022-09-06T12:44:09;99047.63;;;34.06;41.59
28588;BME280;15787;49.662;10.162;2022-09-06T12:46:42;99044.19;;;33.51;42.57
28588;BME280;15787;49.662;10.162;2022-09-06T12:49:19;99044.84;;;32.62;43.38
28588;BME280;15787;49.662;10.162;2022-09-06T12:51:48;99034.44;;;34.13;41.83
28588;BME280;15787;49.662;10.162;2022-09-06T12:54:19;99040.16;;;33.46;41.81
28588;BME280;15787;49.662;10.162;2022-09-06T12:56:49;99033.03;;;33.72;41.40
28588;BME280;15787;49.662;10.162;2022-09-06T12:59:19;99030.03;;;32.58;42.37
28588;BME280;15787;49.662;10.162;2022-09-06T13:01:55;99036.16;;;33.66;41.39
28588;BME280;15787;49.662;10.162;2022-09-06T13:04:35;99030.81;;;33.63;42.23
28588;BME280;15787;49.662;10.162;2022-09-06T13:07:09;99026.16;;;34.09;41.69
28588;BME280;15787;49.662;10.162;2022-09-06T13:09:41;99025.00;;;33.88;41.94
28588;BME280;15787;49.662;10.162;2022-09-06T13:12:19;99018.88;;;34.01;40.86
28588;BME280;15787;49.662;10.162;2022-09-06T13:14:51;99023.78;;;34.50;40.70
28588;BME280;15787;49.662;10.162;2022-09-06T13:17:23;99006.97;;;33.72;42.02
28588;BME280;15787;49.662;10.162;2022-09-06T13:19:52;99013.75;;;33.42;42.11
28588;BME280;15787;49.662;10.162;2022-09-06T13:22:39;99004.75;;;32.66;43.07
28588;BME280;15787;49.662;10.162;2022-09-06T13:25:21;99005.34;;;33.04;42.71
28588;BME280;15787;49.662;10.162;2022-09-06T13:27:51;99001.81;;;34.05;42.27
28588;BME280;15787;49.662;10.162;2022-09-06T13:30:44;98999.31;;;34.26;41.84
28588;BME280;15787;49.662;10.162;2022-09-06T13:33:24;99005.13;;;33.10;42.67